Time;durP1;ratioP1;P1;durP2;ratioP2;P2;SDS_P1;SDS_P2;PMS_P1;PMS_P2;Temp;Humidity;BMP_temperature;BMP_pressure;BME280_temperature;BME280_humidity;BME280_pressure;Samples;Min_cycle;Max_cycle;Signal;HPM_P1;HPM_P2
2024/02/29 00:02:20;;;;;;;59.30;27.48;;;;;;;3.28;83.66;100660.72;10442511;28;20047;-80
2024/02/29 00:07:23;;;;;;;63.47;26.85;;;;;;;3.20;84.21;100661.06;10437277;28;20059;-80
2024/02/29 00:12:27;;;;;;;62.67;27.20;;;;;;;3.16;84.33;100651.53;10438700;28;20048;-78
2024/02/29 00:17:31;;;;;;;61.60;25.65;;;;;;;3.10;84.74;100650.94;10438265;28;20057;-79
2024/02/29 00:22:34;;;;;;;52.47;24.33;;;;;;;3.07;84.80;100649.28;10452005;28;20048;-78
2024/02/29 00:27:39;;;;;;;55.85;25.00;;;;;;;3.06;84.94;100647.56;10466389;28;20049;-80
2024/02/29 00:32:43;;;;;;;53.75;25.50;;;;;;;3.03;84.92;100642.41;10479356;28;20068;-79
2024/02/29 00:37:46;;;;;;;49.75;23.73;;;;;;;2.97;85.29;100638.22;10443792;28;20551;-80
2024/02/29 00:42:50;;;;;;;52.25;25.80;;;;;;;2.99;85.05;100639.03;10442313;28;20127;-79
2024/02/29 00:47:54;;;;;;;56.83;25.48;;;;;;;2.96;84.82;100636.53;10450815;28;20040;-80
2024/02/29 00:52:58;;;;;;;55.30;24.92;;;;;;;2.89;84.88;100628.91;10449701;28;20063;-78
2024/02/29 00:58:02;;;;;;;49.25;22.98;;;;;;;2.86;84.80;100627.25;10426572;28;20071;-77
2024/02/29 01:03:06;;;;;;;49.70;23.55;;;;;;;2.78;84.81;100616.97;10443398;28;20059;-79
2024/02/29 01:08:09;;;;;;;51.08;23.80;;;;;;;2.75;84.56;100614.47;10427148;28;20444;-79
2024/02/29 01:13:13;;;;;;;53.28;22.70;;;;;;;2.72;84.61;100616.41;10458246;28;20125;-79
2024/02/29 01:18:16;;;;;;;47.92;23.00;;;;;;;2.68;84.68;100604.19;10442859;28;20056;-79
2024/02/29 01:23:19;;;;;;;45.78;21.33;;;;;;;2.63;84.54;100598.22;10440280;28;20047;-78
2024/02/29 01:28:24;;;;;;;51.35;22.45;;;;;;;2.63;84.40;100596.44;10455671;28;20045;-78
2024/02/29 01:33:27;;;;;;;48.13;22.65;;;;;;;2.58;84.23;100593.16;10433160;28;20049;-78
2024/02/29 01:38:30;;;;;;;49.53;21.10;;;;;;;2.47;84.95;100584.75;10433952;28;20048;-78
2024/02/29 01:43:35;;;;;;;48.05;22.02;;;;;;;2.44;84.75;100579.56;10440219;28;20063;-78
2024/02/29 01:48:39;;;;;;;42.13;19.95;;;;;;;2.36;84.91;100571.97;10446501;28;20439;-79
2024/02/29 01:53:42;;;;;;;45.60;20.98;;;;;;;2.34;85.21;100569.38;10439799;28;20108;-80
2024/02/29 01:58:47;;;;;;;48.28;21.60;;;;;;;2.35;85.14;100556.97;10430552;28;20211;-80
2024/02/29 02:03:50;;;;;;;40.63;20.40;;;;;;;2.32;84.82;100560.63;10434357;28;20428;-81
2024/02/29 02:08:53;;;;;;;42.05;20.38;;;;;;;2.31;84.40;100547.47;10451051;28;20051;-80
2024/02/29 02:13:58;;;;;;;40.17;18.63;;;;;;;2.18;84.85;100549.78;10453749;28;20040;-80
2024/02/29 02:19:01;;;;;;;38.35;19.00;;;;;;;2.16;85.11;100538.38;10440313;28;20052;-81
2024/02/29 02:24:06;;;;;;;34.13;17.10;;;;;;;2.12;85.43;100526.19;10456146;28;20056;-80
2024/02/29 02:29:09;;;;;;;37.70;18.88;;;;;;;2.10;85.60;100528.03;10437095;28;20055;-80
2024/02/29 02:34:11;;;;;;;41.08;19.25;;;;;;;2.08;85.42;100516.66;10417990;28;20052;-80
2024/02/29 02:39:16;;;;;;;39.33;17.67;;;;;;;2.05;85.88;100506.19;10430944;28;20055;-79
2024/02/29 02:44:19;;;;;;;36.15;18.42;;;;;;;2.12;85.69;100497.03;10418398;28;20045;-80
2024/02/29 02:49:22;;;;;;;36.13;17.50;;;;;;;2.11;85.41;100488.25;10423968;28;21125;-80
2024/02/29 02:54:27;;;;;;;33.65;15.50;;;;;;;2.08;85.04;100482.19;10434072;28;20046;-81
2024/02/29 02:59:29;;;;;;;30.02;13.85;;;;;;;2.20;84.43;100475.50;10426337;28;20059;-79
2024/02/29 03:04:33;;;;;;;27.67;13.40;;;;;;;2.36;83.18;100465.94;10411937;28;20048;-79
2024/02/29 03:09:37;;;;;;;27.02;13.63;;;;;;;2.59;82.15;100459.59;10412254;28;20041;-80
2024/02/29 03:14:40;;;;;;;27.25;13.48;;;;;;;2.71;81.01;100459.00;10414338;28;20053;-81
2024/02/29 03:19:43;;;;;;;27.15;12.32;;;;;;;2.84;80.44;100446.88;10412723;28;20055;-79
2024/02/29 03:24:47;;;;;;;23.92;12.20;;;;;;;3.12;77.98;100442.88;10416027;28;20072;-82
2024/02/29 03:29:51;;;;;;;23.15;11.73;;;;;;;3.31;76.72;100441.97;10423898;28;20052;-79
2024/02/29 03:34:54;;;;;;;23.15;11.57;;;;;;;3.40;75.86;100433.53;10437795;28;20052;-78
2024/02/29 03:39:59;;;;;;;22.13;11.43;;;;;;;3.33;75.54;100414.41;10412787;28;20060;-80
2024/02/29 03:45:02;;;;;;;23.73;11.52;;;;;;;3.09;76.41;100413.84;10413021;28;20052;-79
2024/02/29 03:50:07;;;;;;;22.65;11.27;;;;;;;3.09;76.79;100416.50;10425133;28;20051;-81
2024/02/29 03:55:12;;;;;;;23.83;12.25;;;;;;;3.19;76.43;100395.69;10434868;28;20155;-81
2024/02/29 04:00:16;;;;;;;22.52;11.80;;;;;;;3.19;76.37;100393.88;10426962;28;21571;-80
2024/02/29 04:05:23;;;;;;;24.08;11.85;;;;;;;3.27;76.14;100389.03;10411113;28;20053;-81
2024/02/29 04:10:28;;;;;;;24.08;11.35;;;;;;;3.27;76.04;100370.47;10436728;28;20041;-80
2024/02/29 04:15:31;;;;;;;24.35;12.13;;;;;;;3.27;75.79;100370.47;10421888;28;20697;-79
2024/02/29 04:20:34;;;;;;;25.98;11.68;;;;;;;3.23;75.70;100366.22;10445813;28;20100;-77
2024/02/29 04:25:38;;;;;;;25.50;12.10;;;;;;;3.19;75.65;100369.13;10454205;28;20057;-78
2024/02/29 04:30:42;;;;;;;27.35;13.25;;;;;;;3.12;75.72;100351.78;10433293;28;20067;-79
2024/02/29 04:35:45;;;;;;;25.25;11.73;;;;;;;3.06;76.27;100356.47;10437660;28;20049;-79
2024/02/29 04:40:50;;;;;;;28.50;12.43;;;;;;;3.01;76.21;100347.00;10417850;28;20988;-79
2024/02/29 04:45:54;;;;;;;26.48;13.10;;;;;;;2.94;76.68;100345.63;10413428;28;20178;-78
2024/02/29 04:50:57;;;;;;;28.70;13.63;;;;;;;2.87;76.70;100353.00;10419495;28;20542;-79
2024/02/29 04:56:04;;;;;;;27.75;13.25;;;;;;;2.80;76.86;100351.63;10438748;28;20117;-78
2024/02/29 05:01:07;;;;;;;26.60;13.40;;;;;;;2.78;76.80;100349.03;10435329;28;20511;-78
2024/02/29 05:06:15;;;;;;;26.80;12.90;;;;;;;2.73;76.58;100348.38;10431722;28;20186;-80
2024/02/29 05:11:20;;;;;;;27.17;13.43;;;;;;;2.74;76.09;100338.63;10451857;28;20091;-78
2024/02/29 05:16:23;;;;;;;25.42;13.05;;;;;;;2.77;75.55;100330.50;10445518;28;20055;-78
2024/02/29 05:21:26;;;;;;;25.92;12.98;;;;;;;2.77;75.22;100335.81;10453164;28;20423;-78
2024/02/29 05:26:31;;;;;;;27.17;13.70;;;;;;;2.69;75.22;100317.66;10435318;28;20112;-81
2024/02/29 05:31:34;;;;;;;25.65;12.30;;;;;;;2.65;75.00;100316.06;10439834;28;20127;-81
2024/02/29 05:36:37;;;;;;;24.92;12.50;;;;;;;2.72;74.80;100319.28;10435400;28;20541;-79
2024/02/29 05:41:41;;;;;;;31.15;13.63;;;;;;;2.67;74.66;100308.06;10436975;28;20036;-79
2024/02/29 05:46:44;;;;;;;25.27;12.57;;;;;;;2.67;74.40;100302.75;10443085;28;20058;-81
2024/02/29 05:51:47;;;;;;;22.45;12.15;;;;;;;2.77;73.51;100303.97;10430657;28;20067;-78
2024/02/29 05:56:52;;;;;;;20.27;10.15;;;;;;;2.96;71.89;100294.19;10431395;28;20159;-80
2024/02/29 06:01:55;;;;;;;20.63;9.13;;;;;;;3.20;69.83;100288.53;10423305;28;20045;-79
2024/02/29 06:06:58;;;;;;;24.63;11.80;;;;;;;3.57;66.82;100286.63;10437493;28;20616;-80
2024/02/29 06:12:03;;;;;;;14.02;6.60;;;;;;;3.94;64.31;100281.00;10434714;28;20056;-78
2024/02/29 06:17:07;;;;;;;12.82;6.50;;;;;;;4.09;62.86;100275.81;10434597;28;20542;-79
2024/02/29 06:22:10;;;;;;;14.85;6.90;;;;;;;4.21;62.06;100276.91;10452454;28;20052;-79
2024/02/29 06:27:14;;;;;;;13.73;7.68;;;;;;;4.17;62.00;100273.56;10462949;28;20052;-79
2024/02/29 06:32:18;;;;;;;16.80;9.70;;;;;;;4.32;61.29;100275.34;10450126;28;21144;-79
2024/02/29 06:37:21;;;;;;;14.63;7.70;;;;;;;4.54;60.01;100272.31;10413777;28;20056;-78
2024/02/29 06:42:26;;;;;;;15.52;7.70;;;;;;;4.61;58.84;100267.53;10435317;28;20052;-78
2024/02/29 06:47:29;;;;;;;13.70;7.57;;;;;;;4.90;57.61;100263.13;10446805;28;20064;-78
2024/02/29 06:52:31;;;;;;;14.38;7.03;;;;;;;4.91;56.70;100267.53;10453633;28;20052;-78
2024/02/29 06:57:36;;;;;;;11.27;6.68;;;;;;;5.25;55.68;100268.19;10434471;28;21593;-78
2024/02/29 07:02:39;;;;;;;14.13;7.50;;;;;;;5.40;54.15;100256.59;10416800;28;20040;-80
2024/02/29 07:07:44;;;;;;;11.98;6.38;;;;;;;5.48;53.04;100251.63;10416435;28;20053;-79
2024/02/29 07:12:49;;;;;;;12.50;5.25;;;;;;;5.73;51.74;100242.09;10435815;28;20037;-79
2024/02/29 07:17:52;;;;;;;12.88;6.00;;;;;;;5.98;50.50;100233.44;10443975;28;20075;-78
2024/02/29 07:22:56;;;;;;;10.13;5.10;;;;;;;6.12;49.42;100240.53;10423107;28;20071;-79
2024/02/29 07:28:03;;;;;;;10.02;4.53;;;;;;;6.17;48.72;100233.94;10442617;28;20539;-78
2024/02/29 07:33:06;;;;;;;9.95;5.28;;;;;;;6.66;48.08;100236.97;10447582;28;20057;-80
2024/02/29 07:38:09;;;;;;;9.85;5.25;;;;;;;6.67;46.85;100233.38;10431398;28;20044;-79
2024/02/29 07:43:14;;;;;;;10.68;4.70;;;;;;;6.80;46.82;100235.13;10434491;28;20111;-80
2024/02/29 07:48:17;;;;;;;10.10;5.93;;;;;;;6.88;46.25;100221.25;10428978;28;20415;-78
2024/02/29 07:53:20;;;;;;;10.52;4.75;;;;;;;7.14;45.81;100230.16;10445927;28;20049;-78
2024/02/29 07:58:25;;;;;;;8.02;4.70;;;;;;;7.11;45.52;100218.84;10442426;28;20423;-79
2024/02/29 08:03:28;;;;;;;8.10;4.43;;;;;;;7.34;45.45;100215.41;10424837;28;20158;-79
2024/02/29 08:08:30;;;;;;;9.27;4.75;;;;;;;7.42;44.90;100222.88;10433688;28;20060;-78
2024/02/29 08:13:35;;;;;;;10.23;5.95;;;;;;;7.97;43.86;100216.25;10440488;28;20047;-79
2024/02/29 08:18:39;;;;;;;7.43;4.65;;;;;;;7.97;43.28;100200.22;10435536;28;20053;-79
2024/02/29 08:23:42;;;;;;;7.50;4.50;;;;;;;7.88;42.65;100199.06;10453326;28;20138;-79
2024/02/29 08:28:49;;;;;;;6.30;3.75;;;;;;;8.03;42.26;100201.56;10461497;28;20538;-79
2024/02/29 08:33:55;;;;;;;8.50;4.60;;;;;;;8.20;41.80;100189.63;10445219;28;20139;-79
2024/02/29 08:44:30;;;;;;;6.22;3.90;;;;;;;8.54;41.00;100169.25;10663882;23;20050;-85
2024/02/29 08:49:34;;;;;;;8.23;4.35;;;;;;;8.44;40.17;100182.44;10383080;28;20110;-85
2024/02/29 08:54:37;;;;;;;6.43;4.32;;;;;;;8.75;40.06;100174.78;10367867;28;20038;-83
2024/02/29 08:59:42;;;;;;;9.13;4.30;;;;;;;8.89;39.97;100165.72;10384605;28;20042;-84
2024/02/29 09:04:45;;;;;;;5.78;3.72;;;;;;;9.27;39.14;100160.88;10357248;28;20042;-83
2024/02/29 09:09:48;;;;;;;8.48;4.70;;;;;;;9.68;38.95;100156.72;10364176;28;20617;-85
2024/02/29 09:14:53;;;;;;;5.72;4.13;;;;;;;10.00;38.63;100157.78;10372347;28;20050;-84
2024/02/29 09:19:56;;;;;;;6.85;4.25;;;;;;;9.80;38.23;100140.59;10354529;28;20528;-84
2024/02/29 09:24:59;;;;;;;8.48;4.00;;;;;;;10.12;37.90;100140.63;10359316;28;21437;-84
2024/02/29 09:30:04;;;;;;;6.43;3.95;;;;;;;10.30;37.60;100132.91;10357353;28;20054;-83
2024/02/29 09:35:07;;;;;;;6.70;3.70;;;;;;;10.68;37.47;100123.44;10373363;28;20044;-83
2024/02/29 09:40:11;;;;;;;6.05;3.53;;;;;;;11.40;36.75;100115.31;10359718;28;20050;-84
2024/02/29 09:45:18;;;;;;;7.65;3.70;;;;;;;10.94;36.72;100119.34;10357079;28;20034;-82
2024/02/29 09:50:23;;;;;;;6.68;4.10;;;;;;;10.89;37.27;100126.09;10351065;28;20070;-81
2024/02/29 09:55:27;;;;;;;6.18;3.35;;;;;;;10.86;37.45;100105.72;10354311;28;20064;-83
2024/02/29 10:00:32;;;;;;;6.95;4.68;;;;;;;11.46;37.39;100106.72;10343498;28;20101;-84
2024/02/29 10:05:35;;;;;;;7.25;4.45;;;;;;;11.46;37.83;100101.34;10312588;28;20116;-85
2024/02/29 10:10:38;;;;;;;8.60;4.55;;;;;;;11.12;38.21;100105.28;10311346;28;20711;-84
2024/02/29 10:15:43;;;;;;;9.35;5.50;;;;;;;11.75;38.21;100097.03;10319069;28;20052;-84
2024/02/29 10:20:46;;;;;;;8.88;5.03;;;;;;;11.64;37.62;100101.53;10314186;28;20714;-83
2024/02/29 10:25:51;;;;;;;9.05;4.68;;;;;;;11.82;38.55;100100.84;10280780;28;20038;-84
2024/02/29 10:30:58;;;;;;;6.55;4.32;;;;;;;11.67;38.38;100093.16;10269928;28;20047;-83
2024/02/29 10:36:09;;;;;;;7.80;5.20;;;;;;;11.95;38.66;100079.91;10267655;28;20061;-84
2024/02/29 10:41:15;;;;;;;7.15;4.45;;;;;;;12.11;38.45;100087.41;10308214;28;20125;-83
2024/02/29 10:46:20;;;;;;;9.75;6.00;;;;;;;12.48;37.44;100063.34;10280856;28;20057;-83
2024/02/29 10:51:33;;;;;;;9.43;5.90;;;;;;;12.54;37.60;100053.81;10280901;28;20055;-83
2024/02/29 10:56:37;;;;;;;10.27;7.10;;;;;;;12.69;38.56;100048.81;10269561;28;20046;-84
2024/02/29 11:01:42;;;;;;;13.52;7.43;;;;;;;13.04;37.49;100040.03;10285354;28;20077;-84
2024/02/29 11:06:47;;;;;;;15.73;8.40;;;;;;;13.75;36.78;100038.53;10280164;28;20046;-84
2024/02/29 11:12:08;;;;;;;12.52;7.38;;;;;;;14.22;35.72;100035.56;10272877;28;20082;-84
2024/02/29 11:17:14;;;;;;;11.10;7.43;;;;;;;14.59;35.36;100030.81;10306391;28;20050;-84
2024/02/29 11:22:17;;;;;;;11.23;7.85;;;;;;;14.64;35.64;100018.66;10307799;28;20050;-84
2024/02/29 11:27:30;;;;;;;10.45;6.15;;;;;;;14.92;34.29;100028.31;10308005;28;20050;-84
2024/02/29 11:32:37;;;;;;;9.15;6.10;;;;;;;14.54;34.56;100003.41;10306586;28;20042;-83
2024/02/29 11:37:40;;;;;;;11.20;5.70;;;;;;;15.00;34.41;100008.53;10310620;28;20133;-83
2024/02/29 11:42:43;;;;;;;15.90;9.82;;;;;;;14.86;36.29;99999.19;10302548;28;20425;-83
2024/02/29 11:47:49;;;;;;;15.63;10.32;;;;;;;16.10;36.09;99982.25;10300560;28;20041;-83
2024/02/29 11:52:56;;;;;;;15.55;10.82;;;;;;;16.18;35.64;99965.13;10311364;28;20324;-83
2024/02/29 11:58:00;;;;;;;15.63;10.73;;;;;;;16.25;35.86;99958.84;10341877;28;20050;-84
2024/02/29 12:03:05;;;;;;;17.90;11.10;;;;;;;16.63;35.04;99956.44;10325097;28;20093;-84
2024/02/29 12:08:10;;;;;;;14.82;9.45;;;;;;;15.92;35.05;99967.00;10333931;28;20074;-84
2024/02/29 12:13:13;;;;;;;15.02;10.25;;;;;;;16.46;35.70;99925.81;10323783;28;20042;-85
2024/02/29 12:18:19;;;;;;;18.52;11.15;;;;;;;16.33;35.82;99942.59;10321032;28;20050;-84
2024/02/29 12:23:23;;;;;;;16.95;11.65;;;;;;;16.86;34.99;99933.97;10312233;28;20406;-84
2024/02/29 12:28:25;;;;;;;17.13;10.70;;;;;;;16.15;35.94;99929.25;10339385;28;20029;-84
2024/02/29 12:33:30;;;;;;;17.15;10.88;;;;;;;16.69;35.26;99909.63;10354496;28;20077;-84
2024/02/29 12:38:35;;;;;;;16.08;8.52;;;;;;;16.20;35.79;99925.16;10329994;28;20056;-84
2024/02/29 12:43:38;;;;;;;16.80;11.73;;;;;;;15.42;36.31;99918.41;10324007;28;20169;-84
2024/02/29 12:48:43;;;;;;;15.45;9.48;;;;;;;15.49;36.61;99905.88;10323081;28;20050;-84
2024/02/29 12:53:46;;;;;;;16.45;10.07;;;;;;;15.74;36.17;99906.75;10329978;28;20070;-82
2024/02/29 12:58:49;;;;;;;17.05;10.18;;;;;;;16.09;36.28;99881.13;10328761;28;20046;-82
2024/02/29 13:03:53;;;;;;;15.63;9.93;;;;;;;16.08;36.01;99882.19;10323527;28;22175;-84
2024/02/29 13:08:57;;;;;;;15.13;9.35;;;;;;;18.20;33.30;99856.63;10318369;28;20145;-83
2024/02/29 13:14:00;;;;;;;13.68;9.13;;;;;;;17.12;33.78;99855.84;10318988;28;20058;-84
2024/02/29 13:19:04;;;;;;;13.07;8.45;;;;;;;16.93;34.28;99845.44;10322245;28;20057;-84
2024/02/29 13:24:09;;;;;;;13.88;8.43;;;;;;;15.79;35.61;99849.38;10309919;28;20089;-84
2024/02/29 13:29:12;;;;;;;13.00;9.70;;;;;;;14.99;37.69;99841.88;10307407;28;20091;-83
2024/02/29 13:34:17;;;;;;;16.65;9.45;;;;;;;15.84;37.05;99833.47;10316212;28;20133;-84
2024/02/29 13:39:21;;;;;;;16.30;9.23;;;;;;;16.96;34.59;99828.81;10309687;28;20046;-85
2024/02/29 13:44:24;;;;;;;15.23;9.68;;;;;;;17.34;34.16;99816.19;10311229;28;20062;-84
2024/02/29 13:49:29;;;;;;;15.48;10.05;;;;;;;17.40;34.20;99810.00;10314738;28;20054;-86
2024/02/29 13:54:32;;;;;;;14.90;11.07;;;;;;;18.47;33.34;99795.31;10315133;28;20056;-85
2024/02/29 13:59:35;;;;;;;16.40;10.60;;;;;;;16.50;35.14;99786.19;10314238;28;20078;-85
2024/02/29 14:04:39;;;;;;;15.32;10.05;;;;;;;15.20;37.57;99785.44;10293562;28;20046;-86
2024/02/29 14:09:42;;;;;;;14.38;9.80;;;;;;;15.54;37.31;99767.34;10320740;28;20519;-84
2024/02/29 14:15:11;;;;;;;13.35;8.70;;;;;;;16.13;35.61;99751.63;10326726;28;20069;-85
2024/02/29 14:20:16;;;;;;;17.50;9.25;;;;;;;15.37;37.18;99747.59;10317770;28;20053;-86
2024/02/29 14:25:22;;;;;;;13.57;8.80;;;;;;;15.53;36.93;99736.75;10313100;28;20429;-85
2024/02/29 14:30:26;;;;;;;15.05;10.63;;;;;;;15.85;36.98;99714.16;10308179;28;20077;-85
2024/02/29 14:35:30;;;;;;;16.33;10.40;;;;;;;15.88;37.13;99702.13;10305987;28;21208;-85
2024/02/29 14:40:34;;;;;;;15.75;10.30;;;;;;;15.42;37.51;99697.34;10309688;28;20134;-84
2024/02/29 14:45:37;;;;;;;16.00;9.75;;;;;;;15.61;37.29;99695.28;10303202;28;20050;-85
2024/02/29 14:50:42;;;;;;;15.15;9.88;;;;;;;15.07;38.17;99687.72;10308518;28;20132;-85
2024/02/29 14:55:45;;;;;;;14.68;8.93;;;;;;;14.13;39.60;99694.34;10307002;28;20053;-84
2024/02/29 15:00:48;;;;;;;15.95;10.00;;;;;;;13.56;40.63;99700.34;10319135;28;20042;-85
2024/02/29 15:05:53;;;;;;;15.68;9.85;;;;;;;15.00;39.14;99676.75;10348731;28;20050;-84
2024/02/29 15:10:57;;;;;;;14.10;8.70;;;;;;;15.93;36.28;99665.38;10330756;28;20058;-84
2024/02/29 15:16:00;;;;;;;12.18;8.88;;;;;;;15.83;37.21;99670.16;10323550;28;20104;-83
2024/02/29 15:21:07;;;;;;;14.32;8.50;;;;;;;14.60;38.06;99691.09;10307274;28;20208;-83
2024/02/29 15:26:10;;;;;;;13.40;8.43;;;;;;;13.60;39.61;99658.56;10329049;28;20098;-83
2024/02/29 15:31:15;;;;;;;13.98;8.63;;;;;;;13.26;40.23;99653.09;10329221;28;20070;-82
2024/02/29 15:36:19;;;;;;;16.80;8.95;;;;;;;12.98;40.56;99652.44;10311129;28;20174;-83
2024/02/29 15:41:23;;;;;;;15.65;9.50;;;;;;;13.07;41.04;99637.16;10301006;28;20050;-83
2024/02/29 15:46:26;;;;;;;16.55;8.95;;;;;;;12.89;40.95;99627.28;10316458;28;20057;-82
2024/02/29 15:51:31;;;;;;;15.95;8.48;;;;;;;12.97;41.19;99627.31;10309334;28;20050;-83
2024/02/29 15:56:34;;;;;;;14.93;9.00;;;;;;;12.84;41.01;99624.19;10315819;28;20058;-83
2024/02/29 16:01:40;;;;;;;13.38;8.68;;;;;;;12.75;41.51;99611.66;10299916;28;20046;-84
2024/02/29 16:06:45;;;;;;;14.15;8.43;;;;;;;12.58;41.15;99618.75;10320527;28;20077;-83
2024/02/29 16:11:51;;;;;;;14.05;8.43;;;;;;;12.44;41.22;99622.03;10345829;28;20065;-83
2024/02/29 16:16:54;;;;;;;14.27;8.43;;;;;;;12.14;41.66;99611.44;10332568;28;20070;-83
2024/02/29 16:21:59;;;;;;;14.60;7.95;;;;;;;12.07;42.06;99602.31;10340862;28;20102;-84
2024/02/29 16:27:02;;;;;;;15.88;9.40;;;;;;;12.09;42.61;99594.06;10304682;28;20173;-84
2024/02/29 16:32:06;;;;;;;14.95;8.95;;;;;;;12.01;41.97;99584.03;10303840;28;20055;-84
2024/02/29 16:37:11;;;;;;;15.02;8.90;;;;;;;11.58;42.41;99580.25;10298528;28;20047;-84
2024/02/29 16:42:14;;;;;;;13.75;8.68;;;;;;;11.61;42.66;99587.16;10297280;28;20859;-85
2024/02/29 16:47:17;;;;;;;14.32;9.27;;;;;;;11.51;43.06;99579.13;10298174;28;20046;-84
2024/02/29 16:52:22;;;;;;;22.15;12.70;;;;;;;11.26;42.89;99576.16;10305984;28;20047;-84
2024/02/29 16:57:25;;;;;;;18.38;10.80;;;;;;;11.13;43.09;99580.16;10301291;28;20120;-84
2024/02/29 17:07:59;;;;;;;14.88;8.55;;;;;;;10.76;43.84;99573.75;10426353;23;20124;-79
2024/02/29 17:13:03;;;;;;;17.33;8.23;;;;;;;10.53;44.09;99572.38;10253711;28;20130;-79
2024/02/29 17:18:06;;;;;;;14.35;8.13;;;;;;;10.60;43.70;99576.19;10308450;28;20066;-79
2024/02/29 17:23:10;;;;;;;15.65;10.13;;;;;;;10.44;43.92;99568.72;10300037;28;20046;-80
2024/02/29 17:28:13;;;;;;;16.20;8.68;;;;;;;10.39;43.99;99576.34;10302293;28;20062;-80
2024/02/29 17:33:17;;;;;;;16.63;8.68;;;;;;;10.40;44.06;99556.59;10299828;28;20046;-79
2024/02/29 17:38:22;;;;;;;17.30;8.90;;;;;;;10.15;44.21;99566.91;10290706;28;20042;-80
2024/02/29 17:43:25;;;;;;;18.85;8.65;;;;;;;10.16;44.56;99555.19;10286481;28;20142;-80
2024/02/29 17:48:28;;;;;;;12.90;7.80;;;;;;;10.22;44.46;99560.97;10314889;28;20057;-80
2024/02/29 17:53:33;;;;;;;17.17;9.48;;;;;;;10.01;44.70;99548.56;10316056;28;20155;-79
2024/02/29 17:58:36;;;;;;;18.50;10.48;;;;;;;10.02;44.87;99546.72;10290377;28;20056;-80
2024/02/29 18:03:40;;;;;;;19.20;9.48;;;;;;;9.95;45.32;99546.41;10293854;28;21380;-80
2024/02/29 18:08:44;;;;;;;18.33;9.93;;;;;;;9.95;45.49;99546.41;10294043;28;20104;-79
2024/02/29 18:13:47;;;;;;;19.33;10.40;;;;;;;9.85;45.75;99549.09;10290823;28;20392;-79
2024/02/29 18:18:50;;;;;;;17.98;10.50;;;;;;;9.80;46.29;99537.91;10292277;28;20042;-80
2024/02/29 18:23:55;;;;;;;15.38;9.13;;;;;;;9.66;46.70;99543.69;10290446;28;20145;-81
2024/02/29 18:28:58;;;;;;;19.40;10.00;;;;;;;9.59;46.76;99546.06;10289845;28;20054;-81
2024/02/29 18:34:01;;;;;;;18.00;10.13;;;;;;;9.46;46.78;99543.66;10287835;28;20046;-80
2024/02/29 18:39:08;;;;;;;18.08;9.75;;;;;;;9.57;46.94;99533.78;10286490;28;20058;-81
2024/02/29 18:44:15;;;;;;;18.25;9.35;;;;;;;9.36;47.09;99539.25;10299289;28;20060;-80
2024/02/29 18:49:19;;;;;;;16.92;9.52;;;;;;;9.39;47.14;99522.91;10288157;28;20049;-81
2024/02/29 18:54:24;;;;;;;17.13;9.30;;;;;;;9.39;47.15;99522.91;10294977;28;20050;-81
2024/02/29 18:59:27;;;;;;;20.23;11.13;;;;;;;9.24;47.65;99530.47;10295509;28;20053;-81
2024/02/29 19:04:30;;;;;;;19.48;10.82;;;;;;;9.09;48.23;99524.66;10284506;28;20050;-80
2024/02/29 19:09:35;;;;;;;21.73;10.70;;;;;;;9.09;48.58;99524.66;10297879;28;20049;-81
2024/02/29 19:14:37;;;;;;;16.50;9.75;;;;;;;8.98;48.71;99527.44;10291693;28;20085;-80
2024/02/29 19:19:40;;;;;;;17.98;10.48;;;;;;;9.02;48.67;99516.31;10293078;28;20050;-80
2024/02/29 19:24:45;;;;;;;20.35;10.65;;;;;;;8.93;48.56;99518.94;10286860;28;20043;-81
2024/02/29 19:29:51;;;;;;;22.60;9.63;;;;;;;8.68;48.80;99520.25;10303850;28;20057;-81
2024/02/29 19:34:57;;;;;;;19.38;9.85;;;;;;;8.75;48.81;99514.22;10282890;28;20046;-81
2024/02/29 19:40:01;;;;;;;19.20;10.18;;;;;;;8.67;48.52;99522.09;10303076;28;20137;-80
2024/02/29 19:45:05;;;;;;;19.35;9.73;;;;;;;8.53;48.65;99517.03;10286452;28;20046;-81
2024/02/29 19:50:08;;;;;;;17.02;9.13;;;;;;;8.60;48.35;99508.34;10304650;28;20049;-80
2024/02/29 19:55:13;;;;;;;18.30;10.20;;;;;;;8.66;48.38;99506.13;10310640;28;20101;-81
2024/02/29 20:00:17;;;;;;;15.98;8.90;;;;;;;8.58;48.17;99486.25;10310382;28;20517;-81
2024/02/29 20:05:20;;;;;;;18.10;9.63;;;;;;;8.71;47.69;99483.34;10295968;28;20054;-81
2024/02/29 20:10:24;;;;;;;18.58;10.60;;;;;;;8.70;47.57;99478.97;10312682;28;20204;-81
2024/02/29 20:15:28;;;;;;;17.13;9.95;;;;;;;8.65;47.50;99472.31;10304885;28;20050;-82
2024/02/29 20:20:31;;;;;;;20.55;9.90;;;;;;;8.59;47.69;99469.19;10297626;28;20125;-80
2024/02/29 20:25:35;;;;;;;18.60;10.23;;;;;;;8.60;48.02;99468.22;10295806;28;20050;-79
2024/02/29 20:30:39;;;;;;;19.10;10.85;;;;;;;8.49;48.99;99467.47;10296936;28;20143;-79
2024/02/29 20:35:42;;;;;;;18.15;10.30;;;;;;;8.48;49.66;99465.78;10300910;28;20042;-80
2024/02/29 20:40:46;;;;;;;24.25;11.35;;;;;;;8.52;50.29;99456.47;10299491;28;20050;-79
2024/02/29 20:45:50;;;;;;;23.58;11.52;;;;;;;8.41;51.11;99449.34;10305160;28;20053;-80
2024/02/29 20:50:53;;;;;;;21.90;11.95;;;;;;;8.31;51.90;99452.00;10311667;28;20049;-79
2024/02/29 20:55:58;;;;;;;23.05;11.95;;;;;;;8.17;53.03;99437.13;10298928;28;20054;-79
2024/02/29 21:01:02;;;;;;;24.55;13.35;;;;;;;8.16;53.80;99443.44;10311360;28;20128;-80
2024/02/29 21:06:06;;;;;;;27.42;14.05;;;;;;;8.07;54.63;99441.56;10303412;28;20054;-79
2024/02/29 21:11:10;;;;;;;27.05;13.75;;;;;;;8.10;55.09;99432.44;10296129;28;20129;-80
2024/02/29 21:16:13;;;;;;;26.10;14.48;;;;;;;8.08;55.67;99432.56;10310409;28;20043;-81
2024/02/29 21:21:16;;;;;;;26.75;14.48;;;;;;;8.07;56.00;99425.53;10301577;28;20196;-80
2024/02/29 21:26:23;;;;;;;28.75;14.43;;;;;;;8.01;56.70;99410.00;10302506;28;20054;-81
2024/02/29 21:31:26;;;;;;;31.63;16.02;;;;;;;7.97;57.03;99411.22;10304255;28;21888;-80
2024/02/29 21:36:29;;;;;;;27.40;15.30;;;;;;;7.89;57.65;99411.88;10300669;28;20258;-81
2024/02/29 21:41:33;;;;;;;26.40;14.25;;;;;;;7.85;57.91;99407.78;10301916;28;20049;-80
2024/02/29 21:46:38;;;;;;;32.22;15.52;;;;;;;7.78;58.57;99403.09;10297342;28;20049;-80
2024/02/29 21:51:41;;;;;;;28.00;15.43;;;;;;;7.64;59.32;99394.41;10302097;28;20525;-80
2024/02/29 21:56:45;;;;;;;28.42;16.20;;;;;;;7.58;59.88;99386.91;10315112;28;20438;-79
2024/02/29 22:01:48;;;;;;;30.13;15.73;;;;;;;7.52;60.22;99384.75;10315232;28;20060;-81
2024/02/29 22:06:52;;;;;;;26.67;15.15;;;;;;;7.38;60.91;99372.56;10313085;28;20056;-82
2024/02/29 22:11:58;;;;;;;28.95;15.82;;;;;;;7.34;61.60;99370.28;10297657;28;20050;-79
2024/02/29 22:17:01;;;;;;;31.85;16.88;;;;;;;7.15;62.66;99361.09;10310193;28;20160;-80
2024/02/29 22:22:04;;;;;;;30.42;16.13;;;;;;;7.17;62.69;99355.66;10298573;28;20045;-80
2024/02/29 22:27:09;;;;;;;31.25;17.50;;;;;;;7.09;63.43;99356.28;10305318;28;20095;-80
2024/02/29 22:32:12;;;;;;;32.13;17.95;;;;;;;7.04;63.72;99345.13;10301079;28;20049;-80
2024/02/29 22:37:15;;;;;;;35.90;18.23;;;;;;;7.07;64.13;99344.88;10305754;28;20050;-80
2024/02/29 22:42:21;;;;;;;31.98;17.63;;;;;;;7.05;64.27;99345.03;10307579;28;20056;-80
2024/02/29 22:47:24;;;;;;;34.97;18.25;;;;;;;7.03;64.37;99348.78;10304984;28;20050;-80
2024/02/29 22:52:27;;;;;;;34.25;19.38;;;;;;;6.97;64.75;99346.63;10294211;28;20645;-80
2024/02/29 22:57:32;;;;;;;31.52;16.98;;;;;;;6.87;65.39;99353.66;10305233;28;20053;-80
2024/02/29 23:02:36;;;;;;;34.08;18.17;;;;;;;6.84;65.82;99349.41;10295007;28;20050;-80
2024/02/29 23:07:40;;;;;;;43.72;19.83;;;;;;;6.73;66.41;99347.63;10308152;28;20042;-80
2024/02/29 23:12:44;;;;;;;41.35;20.08;;;;;;;6.74;66.99;99341.31;10298834;28;20421;-80
2024/02/29 23:17:48;;;;;;;36.10;20.35;;;;;;;6.76;67.13;99336.69;10303435;28;20525;-80
2024/02/29 23:22:52;;;;;;;40.03;20.27;;;;;;;6.74;67.39;99325.28;10305303;28;20061;-79